createdAt,value
2024-05-09T00:00:35.850Z,11.78
2024-05-09T00:03:10.634Z,11.61
2024-05-09T00:05:40.196Z,11.62
2024-05-09T00:08:07.327Z,11.53
2024-05-09T00:10:37.518Z,11.45
2024-05-09T00:13:10.241Z,11.46
2024-05-09T00:15:37.478Z,11.49
2024-05-09T00:18:05.558Z,11.55
2024-05-09T00:20:38.127Z,11.41
2024-05-09T00:23:12.085Z,11.40
2024-05-09T00:25:39.895Z,11.38
2024-05-09T00:28:06.715Z,11.34
2024-05-09T00:30:36.091Z,11.34
2024-05-09T00:33:05.893Z,11.33
2024-05-09T00:35:33.741Z,11.33
2024-05-09T00:38:00.851Z,11.25
2024-05-09T00:40:37.647Z,11.17
2024-05-09T00:43:06.990Z,11.12
2024-05-09T00:45:34.768Z,11.07
2024-05-09T00:48:03.273Z,11.02
2024-05-09T00:50:36.343Z,11.09
2024-05-09T00:53:06.870Z,11.09
2024-05-09T00:55:35.582Z,11.08
2024-05-09T00:58:03.139Z,11.13
2024-05-09T01:00:37.845Z,11.04
2024-05-09T01:03:07.611Z,11.09
2024-05-09T01:05:35.323Z,10.99
2024-05-09T01:08:02.820Z,10.96
2024-05-09T01:10:34.430Z,10.97
2024-05-09T01:13:06.401Z,10.97
2024-05-09T01:15:34.774Z,10.97
2024-05-09T01:18:07.019Z,11.01
2024-05-09T01:20:41.088Z,11.08
2024-05-09T01:23:11.164Z,11.01
2024-05-09T01:25:38.211Z,11.02
2024-05-09T01:28:05.405Z,11.03
2024-05-09T01:30:35.474Z,11.00
2024-05-09T01:33:06.272Z,11.00
2024-05-09T01:35:34.633Z,10.98
2024-05-09T01:38:01.381Z,10.95
2024-05-09T01:40:36.053Z,11.00
2024-05-09T01:43:05.603Z,11.04
2024-05-09T01:45:32.208Z,11.00
2024-05-09T01:47:59.320Z,10.97
2024-05-09T01:50:37.166Z,10.93
2024-05-09T01:53:07.698Z,10.86
2024-05-09T01:55:34.413Z,10.90
2024-05-09T01:58:01.107Z,10.82
2024-05-09T02:00:37.791Z,10.82
2024-05-09T02:03:15.295Z,10.83
2024-05-09T02:05:45.090Z,10.84
2024-05-09T02:08:17.317Z,10.81
2024-05-09T02:10:44.877Z,10.77
2024-05-09T02:13:11.680Z,10.84
2024-05-09T02:15:38.405Z,10.94
2024-05-09T02:18:05.759Z,10.92
2024-05-09T02:20:36.109Z,10.88
2024-05-09T02:23:06.194Z,10.90
2024-05-09T02:25:33.424Z,10.89
2024-05-09T02:28:00.140Z,10.90
2024-05-09T02:30:37.695Z,10.96
2024-05-09T02:33:08.286Z,11.03
2024-05-09T02:35:35.970Z,11.09
2024-05-09T02:38:03.044Z,11.15
2024-05-09T02:40:36.607Z,11.13
2024-05-09T02:43:06.336Z,11.06
2024-05-09T02:45:33.199Z,11.07
2024-05-09T02:48:00.503Z,11.07
2024-05-09T02:50:34.478Z,11.10
2024-05-09T02:53:06.166Z,11.16
2024-05-09T02:55:33.186Z,11.18
2024-05-09T02:57:59.911Z,11.19
2024-05-09T03:00:35.063Z,11.22
2024-05-09T03:03:12.757Z,11.27
2024-05-09T03:05:41.836Z,11.26
2024-05-09T03:08:08.896Z,11.29
2024-05-09T03:10:38.238Z,11.28
2024-05-09T03:13:11.469Z,11.23
2024-05-09T03:15:38.188Z,11.25
2024-05-09T03:18:06.328Z,11.28
2024-05-09T03:20:35.631Z,11.23
2024-05-09T03:23:05.063Z,11.28
2024-05-09T03:25:32.286Z,11.29
2024-05-09T03:27:59.330Z,11.28
2024-05-09T03:30:36.781Z,11.28
2024-05-09T03:33:13.168Z,11.22
2024-05-09T03:35:41.005Z,11.20
2024-05-09T03:38:07.675Z,11.16
2024-05-09T03:40:34.252Z,11.10
2024-05-09T03:43:00.890Z,11.08
2024-05-09T03:45:27.496Z,11.11
2024-05-09T03:47:54.410Z,11.16
2024-05-09T03:50:29.523Z,11.15
2024-05-09T03:53:00.609Z,11.16
2024-05-09T03:55:27.566Z,11.06
2024-05-09T03:57:54.477Z,11.05
2024-05-09T04:00:30.554Z,11.07
2024-05-09T04:03:03.936Z,11.09
2024-05-09T04:05:31.224Z,11.10
2024-05-09T04:07:58.513Z,11.10
2024-05-09T04:10:32.410Z,11.15
2024-05-09T04:13:00.730Z,11.19
2024-05-09T04:15:27.430Z,11.23
2024-05-09T04:17:54.232Z,11.24
2024-05-09T04:20:29.579Z,11.28
2024-05-09T04:23:04.342Z,11.21
2024-05-09T04:25:32.158Z,11.19
2024-05-09T04:27:58.751Z,11.20
2024-05-09T04:30:34.602Z,11.23
2024-05-09T04:33:06.442Z,11.26
2024-05-09T04:35:33.939Z,11.26
2024-05-09T04:38:00.711Z,11.26
2024-05-09T04:40:33.196Z,11.22
2024-05-09T04:43:03.344Z,11.25
2024-05-09T04:45:30.374Z,11.25
2024-05-09T04:47:57.141Z,11.26
2024-05-09T04:50:33.276Z,11.24
2024-05-09T04:53:04.127Z,11.25
2024-05-09T04:55:31.285Z,11.27
2024-05-09T04:57:57.894Z,11.24
2024-05-09T05:00:32.529Z,11.22
2024-05-09T05:03:06.970Z,11.24
2024-05-09T05:05:37.569Z,11.26
2024-05-09T05:08:04.789Z,11.29
2024-05-09T05:10:36.047Z,11.30
2024-05-09T05:13:17.941Z,11.25
2024-05-09T05:15:50.478Z,11.31
2024-05-09T05:18:17.850Z,11.36
2024-05-09T05:20:45.176Z,11.34
2024-05-09T05:23:13.747Z,11.36
2024-05-09T05:25:41.325Z,11.34
2024-05-09T05:28:08.094Z,11.33
2024-05-09T05:30:37.508Z,11.35
2024-05-09T05:33:05.306Z,11.36
2024-05-09T05:35:32.171Z,11.38
2024-05-09T05:37:58.855Z,11.43
2024-05-09T05:40:33.105Z,11.46
2024-05-09T05:43:04.778Z,11.49
2024-05-09T05:45:31.376Z,11.52
2024-05-09T05:47:58.190Z,11.55
2024-05-09T05:50:32.540Z,11.55
2024-05-09T05:53:03.209Z,11.63
2024-05-09T05:55:30.020Z,11.73
2024-05-09T05:57:56.703Z,11.89
2024-05-09T06:00:29.923Z,12.55
2024-05-09T06:03:04.869Z,14.41
2024-05-09T06:05:31.949Z,15.99
2024-05-09T06:07:58.909Z,17.07
2024-05-09T06:10:30.233Z,17.90
2024-05-09T06:13:04.131Z,18.61
2024-05-09T06:15:30.686Z,19.21
2024-05-09T06:17:57.438Z,19.66
2024-05-09T06:20:33.612Z,20.28
2024-05-09T06:23:03.470Z,21.00
2024-05-09T06:25:30.212Z,21.25
2024-05-09T06:27:56.833Z,21.70
2024-05-09T06:30:30.389Z,21.81
2024-05-09T06:33:05.595Z,22.13
2024-05-09T06:35:33.112Z,22.10
2024-05-09T06:38:00.044Z,21.44
2024-05-09T06:40:36.002Z,21.13
2024-05-09T06:43:05.412Z,21.29
2024-05-09T06:45:32.015Z,20.59
2024-05-09T06:47:58.844Z,20.01
2024-05-09T06:50:28.577Z,21.09
2024-05-09T06:53:02.569Z,21.88
2024-05-09T06:55:29.339Z,21.67
2024-05-09T06:57:55.931Z,20.48
2024-05-09T07:00:30.294Z,19.78
2024-05-09T07:03:12.185Z,19.14
2024-05-09T07:05:40.422Z,18.55
2024-05-09T07:08:07.733Z,17.94
2024-05-09T07:10:36.463Z,17.63
2024-05-09T07:13:08.397Z,17.09
2024-05-09T07:15:35.003Z,16.71
2024-05-09T07:18:01.901Z,16.53
2024-05-09T07:20:34.408Z,16.32
2024-05-09T07:23:04.888Z,16.35
2024-05-09T07:25:31.697Z,16.25
2024-05-09T07:27:58.350Z,16.21
2024-05-09T07:30:32.676Z,16.23
2024-05-09T07:33:01.686Z,16.53
2024-05-09T07:35:29.450Z,16.76
2024-05-09T07:37:56.402Z,17.09
2024-05-09T07:42:52.564Z,17.40
2024-05-09T07:45:40.466Z,17.40
2024-05-09T07:52:32.664Z,16.78
2024-05-09T07:55:54.006Z,16.31
2024-05-09T07:58:22.330Z,16.24
2024-05-09T08:00:49.074Z,16.27
2024-05-09T08:03:15.974Z,16.78
2024-05-09T08:05:42.759Z,16.95
2024-05-09T08:08:09.416Z,16.78
2024-05-09T08:10:36.139Z,16.57
2024-05-09T08:13:02.840Z,16.29
2024-05-09T08:15:29.721Z,16.16
2024-05-09T08:17:56.653Z,16.06
2024-05-09T08:20:30.925Z,15.95
2024-05-09T08:23:01.451Z,16.46
2024-05-09T08:25:28.280Z,17.14
2024-05-09T08:27:54.982Z,16.78
2024-05-09T08:30:25.345Z,16.94
2024-05-09T08:32:59.282Z,17.78
2024-05-09T08:35:25.961Z,18.92
2024-05-09T08:37:53.589Z,19.96
2024-05-09T08:40:30.433Z,20.65
2024-05-09T08:43:02.545Z,21.37
2024-05-09T08:45:31.301Z,21.82
2024-05-09T08:48:01.343Z,22.32
2024-05-09T08:50:35.891Z,22.66
2024-05-09T08:53:05.875Z,22.94
2024-05-09T08:55:32.761Z,23.18
2024-05-09T08:58:02.644Z,23.18
2024-05-09T09:00:36.554Z,23.28
2024-05-09T09:03:08.309Z,23.66
2024-05-09T09:05:38.822Z,23.70
2024-05-09T09:08:07.939Z,23.82
2024-05-09T09:10:35.583Z,23.84
2024-05-09T09:13:04.724Z,23.81
2024-05-09T09:15:32.009Z,23.74
2024-05-09T09:18:00.199Z,23.56
2024-05-09T09:20:34.226Z,23.30
2024-05-09T09:23:03.895Z,22.73
2024-05-09T09:25:30.816Z,22.21
2024-05-09T09:27:58.530Z,21.80
2024-05-09T09:30:35.187Z,21.16
2024-05-09T09:33:05.393Z,20.62
2024-05-09T09:35:32.719Z,20.21
2024-05-09T09:38:02.371Z,19.99
2024-05-09T09:40:38.633Z,19.89
2024-05-09T09:43:18.578Z,19.84
2024-05-09T09:45:46.868Z,19.74
2024-05-09T09:48:14.858Z,19.67
2024-05-09T09:50:42.456Z,19.50
2024-05-09T09:53:10.352Z,19.39
2024-05-09T09:55:38.581Z,19.20
2024-05-09T09:58:09.658Z,19.15
2024-05-09T10:00:38.871Z,19.08
2024-05-09T10:03:05.653Z,18.97
2024-05-09T10:05:33.601Z,18.84
2024-05-09T10:08:05.542Z,18.70
2024-05-09T10:10:36.278Z,18.53
2024-05-09T10:13:07.755Z,18.41
2024-05-09T10:15:50.386Z,18.24
2024-05-09T10:18:17.682Z,18.13
2024-05-09T10:20:45.194Z,18.15
2024-05-09T10:23:30.624Z,18.12
2024-05-09T10:26:01.689Z,18.09
2024-05-09T10:28:33.315Z,18.03
2024-05-09T10:31:12.163Z,18.03
2024-05-09T10:33:46.128Z,18.01
2024-05-09T10:36:22.950Z,18.10
2024-05-09T10:38:50.326Z,18.19
2024-05-09T10:41:18.031Z,18.28
2024-05-09T10:43:44.831Z,18.16
2024-05-09T10:46:12.300Z,18.17
2024-05-09T10:48:41.609Z,18.23
2024-05-09T10:51:09.197Z,18.22
2024-05-09T10:53:42.688Z,18.18
2024-05-09T10:56:09.748Z,18.06
2024-05-09T10:58:36.641Z,18.02
2024-05-09T11:01:06.745Z,17.95
2024-05-09T11:03:34.735Z,17.92
2024-05-09T11:06:01.577Z,17.96
2024-05-09T11:08:28.772Z,17.93
2024-05-09T11:10:56.305Z,17.88
2024-05-09T11:13:33.456Z,17.91
2024-05-09T11:16:00.687Z,17.97
2024-05-09T11:18:32.171Z,18.01
2024-05-09T11:21:02.016Z,18.16
2024-05-09T11:23:32.427Z,18.24
2024-05-09T11:25:59.245Z,18.31
2024-05-09T11:28:28.703Z,18.47
2024-05-09T11:31:09.476Z,18.58
2024-05-09T11:33:43.109Z,18.61
2024-05-09T11:36:10.654Z,18.67
2024-05-09T11:38:37.548Z,18.72
2024-05-09T11:41:05.313Z,18.65
2024-05-09T11:43:32.154Z,18.63
2024-05-09T11:45:59.910Z,18.62
2024-05-09T11:48:26.952Z,18.67
2024-05-09T11:50:55.308Z,18.59
2024-05-09T11:53:22.027Z,18.58
2024-05-09T11:55:48.728Z,18.64
2024-05-09T11:58:17.596Z,18.71
2024-05-09T12:00:45.031Z,18.77
2024-05-09T12:03:11.764Z,18.76
2024-05-09T12:05:38.594Z,18.72
2024-05-09T12:08:06.050Z,18.63
2024-05-09T12:10:35.267Z,18.67
2024-05-09T12:13:05.399Z,18.75
2024-05-09T12:15:34.003Z,18.83
2024-05-09T12:18:03.421Z,18.73
2024-05-09T12:20:36.749Z,18.83
2024-05-09T12:23:06.278Z,18.87
2024-05-09T12:25:33.093Z,18.89
2024-05-09T12:28:00.189Z,19.08
2024-05-09T12:30:35.511Z,19.08
2024-05-09T12:33:06.540Z,19.14
2024-05-09T12:35:33.318Z,19.19
2024-05-09T12:38:00.008Z,19.06
2024-05-09T12:40:34.694Z,19.02
2024-05-09T12:43:05.246Z,19.09
2024-05-09T12:45:32.308Z,19.09
2024-05-09T12:47:59.471Z,19.14
2024-05-09T12:50:32.312Z,19.20
2024-05-09T12:53:01.099Z,19.13
2024-05-09T12:55:28.639Z,19.02
2024-05-09T12:57:58.556Z,19.16
2024-05-09T13:00:31.461Z,19.10
2024-05-09T13:03:00.952Z,19.02
2024-05-09T13:05:28.168Z,19.14
2024-05-09T13:07:56.427Z,19.28
2024-05-09T13:10:29.351Z,19.42
2024-05-09T13:12:59.845Z,19.43
2024-05-09T13:15:26.899Z,19.26
2024-05-09T13:17:54.820Z,19.32
2024-05-09T13:20:29.479Z,19.33
2024-05-09T13:23:05.582Z,19.27
2024-05-09T13:25:34.822Z,19.20
2024-05-09T13:28:02.051Z,19.14
2024-05-09T13:30:37.300Z,19.03
2024-05-09T13:33:07.358Z,18.98
2024-05-09T13:35:35.663Z,18.84
2024-05-09T13:38:03.464Z,18.82
2024-05-09T13:40:34.363Z,18.81
2024-05-09T13:43:04.036Z,18.75
2024-05-09T13:45:31.070Z,18.72
2024-05-09T13:47:58.179Z,18.73
2024-05-09T13:50:33.191Z,18.72
2024-05-09T13:53:02.788Z,18.74
2024-05-09T13:55:29.357Z,18.70
2024-05-09T13:57:56.344Z,18.59
2024-05-09T14:00:37.346Z,18.60
2024-05-09T14:03:09.868Z,18.57
2024-05-09T14:05:37.060Z,18.60
2024-05-09T14:08:04.098Z,18.67
2024-05-09T14:10:32.097Z,18.73
2024-05-09T14:13:00.259Z,18.76
2024-05-09T14:15:27.089Z,18.72
2024-05-09T14:17:54.771Z,18.65
2024-05-09T14:22:50.858Z,18.59
2024-05-09T14:25:17.610Z,18.60
2024-05-09T14:27:44.412Z,18.65
2024-05-09T14:30:18.267Z,18.65
2024-05-09T14:32:52.638Z,18.62
2024-05-09T14:35:19.411Z,18.68
2024-05-09T14:37:46.134Z,18.79
2024-05-09T14:40:30.307Z,18.81
2024-05-09T14:43:03.158Z,18.87
2024-05-09T14:45:30.224Z,18.86
2024-05-09T14:47:57.215Z,18.88
2024-05-09T14:50:34.040Z,18.89
2024-05-09T14:53:03.776Z,18.96
2024-05-09T14:55:30.726Z,19.06
2024-05-09T14:57:57.416Z,19.19
2024-05-09T15:00:28.941Z,19.32
2024-05-09T15:03:00.541Z,19.40
2024-05-09T15:05:27.389Z,19.43
2024-05-09T15:07:54.458Z,19.42
2024-05-09T15:10:27.452Z,19.49
2024-05-09T15:13:01.240Z,19.52
2024-05-09T15:15:28.046Z,19.40
2024-05-09T15:17:55.466Z,19.21
2024-05-09T15:20:31.073Z,19.18
2024-05-09T15:23:02.260Z,19.08
2024-05-09T15:25:29.107Z,18.95
2024-05-09T15:27:56.018Z,18.94
2024-05-09T15:32:55.874Z,19.13
2024-05-09T15:35:22.512Z,18.99
2024-05-09T15:37:49.320Z,18.86
2024-05-09T15:40:26.013Z,18.77
2024-05-09T15:43:01.876Z,18.64
2024-05-09T15:45:31.371Z,18.56
2024-05-09T15:47:58.493Z,18.64
2024-05-09T15:50:35.388Z,18.65
2024-05-09T15:53:06.135Z,18.58
2024-05-09T15:55:33.989Z,18.60
2024-05-09T15:58:02.662Z,18.63
2024-05-09T16:00:37.338Z,18.66
2024-05-09T16:03:07.854Z,18.66
2024-05-09T16:05:34.896Z,18.72
2024-05-09T16:08:02.290Z,18.74
2024-05-09T16:10:32.782Z,18.70
2024-05-09T16:13:01.588Z,18.62
2024-05-09T16:15:28.581Z,18.55
2024-05-09T16:17:55.622Z,18.51
2024-05-09T16:20:33.906Z,18.41
2024-05-09T16:23:06.064Z,18.45
2024-05-09T16:25:32.717Z,18.48
2024-05-09T16:27:59.953Z,18.51
2024-05-09T16:30:33.892Z,18.51
2024-05-09T16:33:03.494Z,18.56
2024-05-09T16:35:30.859Z,18.62
2024-05-09T16:37:57.510Z,18.64
2024-05-09T16:40:34.274Z,18.59
2024-05-09T16:43:05.844Z,18.58
2024-05-09T16:45:33.214Z,18.58
2024-05-09T16:48:00.514Z,18.57
2024-05-09T16:50:32.522Z,18.59
2024-05-09T16:53:01.724Z,18.52
2024-05-09T16:55:28.502Z,18.41
2024-05-09T16:57:56.375Z,18.26
2024-05-09T17:00:34.822Z,18.30
2024-05-09T17:03:07.764Z,18.25
2024-05-09T17:05:35.539Z,18.27
2024-05-09T17:08:03.076Z,18.25
2024-05-09T17:10:33.520Z,18.18
2024-05-09T17:13:03.643Z,18.13
2024-05-09T17:15:32.139Z,18.20
2024-05-09T17:17:59.135Z,18.20
2024-05-09T17:20:32.427Z,18.21
2024-05-09T17:23:02.403Z,18.24
2024-05-09T17:25:29.396Z,18.23
2024-05-09T17:27:56.676Z,18.21
2024-05-09T17:30:31.623Z,18.20
2024-05-09T17:33:03.180Z,18.28
2024-05-09T17:35:29.965Z,18.27
2024-05-09T17:37:58.915Z,18.26
2024-05-09T17:40:31.521Z,18.27
2024-05-09T17:43:02.987Z,18.29
2024-05-09T17:45:29.797Z,18.30
2024-05-09T17:47:56.654Z,18.30
2024-05-09T17:50:30.371Z,18.21
2024-05-09T17:53:01.445Z,18.18
2024-05-09T17:55:28.619Z,18.02
2024-05-09T17:57:55.833Z,17.95
2024-05-09T18:00:32.951Z,17.86
2024-05-09T18:03:05.501Z,17.77
2024-05-09T18:05:32.560Z,17.68
2024-05-09T18:07:59.317Z,17.61
2024-05-09T18:10:33.123Z,17.55
2024-05-09T18:13:05.475Z,17.50
2024-05-09T18:15:32.666Z,17.42
2024-05-09T18:17:59.615Z,17.39
2024-05-09T18:20:36.652Z,17.37
2024-05-09T18:23:09.079Z,17.35
2024-05-09T18:25:35.688Z,17.34
2024-05-09T18:28:03.540Z,17.30
2024-05-09T18:30:34.878Z,17.26
2024-05-09T18:33:07.653Z,17.23
2024-05-09T18:35:35.157Z,17.20
2024-05-09T18:38:02.272Z,17.18
2024-05-09T18:40:34.247Z,17.13
2024-05-09T18:43:06.106Z,17.07
2024-05-09T18:45:34.322Z,16.98
2024-05-09T18:48:01.224Z,16.98
2024-05-09T18:50:34.496Z,16.99
2024-05-09T18:53:08.415Z,16.93
2024-05-09T18:55:35.567Z,16.86
2024-05-09T18:58:03.458Z,16.82
2024-05-09T19:00:35.770Z,16.79
2024-05-09T19:03:09.449Z,16.77
2024-05-09T19:05:39.184Z,16.74
2024-05-09T19:08:07.439Z,16.72
2024-05-09T19:10:35.687Z,16.70
2024-05-09T19:13:08.012Z,16.67
2024-05-09T19:15:38.393Z,16.65
2024-05-09T19:18:06.105Z,16.61
2024-05-09T19:20:35.221Z,16.57
2024-05-09T19:23:03.474Z,16.55
2024-05-09T19:25:30.303Z,16.52
2024-05-09T19:27:56.947Z,16.48
2024-05-09T19:30:30.528Z,16.46
2024-05-09T19:33:05.591Z,16.42
2024-05-09T19:35:32.513Z,16.39
2024-05-09T19:37:59.274Z,16.36
2024-05-09T19:40:31.355Z,16.35
2024-05-09T19:43:01.523Z,16.31
2024-05-09T19:45:28.836Z,16.28
2024-05-09T19:47:55.959Z,16.24
2024-05-09T19:50:31.012Z,16.20
2024-05-09T19:53:04.209Z,16.17
2024-05-09T19:55:30.909Z,16.14
2024-05-09T19:57:58.227Z,16.11
2024-05-09T20:00:32.670Z,16.13
2024-05-09T20:03:02.680Z,16.11
2024-05-09T20:05:31.207Z,16.08
2024-05-09T20:07:58.277Z,16.03
2024-05-09T20:10:31.100Z,16.00
2024-05-09T20:13:00.036Z,15.98
2024-05-09T20:15:26.981Z,15.95
2024-05-09T20:17:54.348Z,15.91
2024-05-09T20:20:32.076Z,15.92
2024-05-09T20:23:04.069Z,15.92
2024-05-09T20:25:30.757Z,15.90
2024-05-09T20:27:57.737Z,15.89
2024-05-09T20:30:31.292Z,15.87
2024-05-09T20:33:00.691Z,15.84
2024-05-09T20:35:31.638Z,15.82
2024-05-09T20:37:58.819Z,15.82
2024-05-09T20:40:31.646Z,15.79
2024-05-09T20:43:02.044Z,15.78
2024-05-09T20:45:28.720Z,15.77
2024-05-09T20:47:55.875Z,15.76
2024-05-09T20:50:29.279Z,15.73
2024-05-09T20:53:03.656Z,15.70
2024-05-09T20:55:30.518Z,15.66
2024-05-09T20:57:57.750Z,15.64
2024-05-09T21:00:34.325Z,15.59
2024-05-09T21:03:07.015Z,15.57
2024-05-09T21:05:34.973Z,15.55
2024-05-09T21:08:02.148Z,15.56
2024-05-09T21:10:32.796Z,15.57
2024-05-09T21:13:01.363Z,15.56
2024-05-09T21:15:30.522Z,15.54
2024-05-09T21:17:57.258Z,15.49
2024-05-09T21:20:30.591Z,15.42
2024-05-09T21:22:58.963Z,15.37
2024-05-09T21:25:25.858Z,15.36
2024-05-09T21:27:52.819Z,15.28
2024-05-09T21:30:31.285Z,15.28
2024-05-09T21:33:05.847Z,15.25
2024-05-09T21:35:32.791Z,15.26
2024-05-09T21:37:59.378Z,15.29
2024-05-09T21:40:33.354Z,15.27
2024-05-09T21:43:02.234Z,15.27
2024-05-09T21:45:28.941Z,15.23
2024-05-09T21:47:55.938Z,15.21
2024-05-09T21:50:28.512Z,15.20
2024-05-09T21:53:03.000Z,15.17
2024-05-09T21:55:30.090Z,15.16
2024-05-09T21:57:56.949Z,15.15
2024-05-09T22:00:32.037Z,15.16
2024-05-09T22:03:03.513Z,15.09
2024-05-09T22:05:30.416Z,15.09
2024-05-09T22:07:57.330Z,15.09
2024-05-09T22:10:30.553Z,15.07
2024-05-09T22:13:00.977Z,15.04
2024-05-09T22:15:27.787Z,15.08
2024-05-09T22:17:56.349Z,15.11
2024-05-09T22:20:32.840Z,15.12
2024-05-09T22:23:03.232Z,15.12
2024-05-09T22:25:31.172Z,15.01
2024-05-09T22:27:58.880Z,14.98
2024-05-09T22:30:34.135Z,14.88
2024-05-09T22:33:05.207Z,14.66
2024-05-09T22:35:32.024Z,14.59
2024-05-09T22:37:58.739Z,14.50
2024-05-09T22:40:37.872Z,14.44
2024-05-09T22:43:12.577Z,14.42
2024-05-09T22:45:39.524Z,14.46
2024-05-09T22:48:07.443Z,14.53
2024-05-09T22:50:34.290Z,14.41
2024-05-09T22:53:01.246Z,14.34
2024-05-09T22:55:27.973Z,14.31
2024-05-09T22:57:54.711Z,14.21
2024-05-09T23:00:29.328Z,14.34
2024-05-09T23:02:59.785Z,14.42
2024-05-09T23:05:26.722Z,14.40
2024-05-09T23:07:53.457Z,14.39
2024-05-09T23:10:27.487Z,14.39
2024-05-09T23:12:59.056Z,14.38
2024-05-09T23:15:25.742Z,14.33
2024-05-09T23:17:52.541Z,14.35
2024-05-09T23:20:29.784Z,14.39
2024-05-09T23:23:03.501Z,14.35
2024-05-09T23:25:30.163Z,14.44
2024-05-09T23:27:56.926Z,14.39
2024-05-09T23:30:33.274Z,14.30
2024-05-09T23:33:05.162Z,14.18
2024-05-09T23:35:31.925Z,14.05
2024-05-09T23:37:58.546Z,14.01
2024-05-09T23:40:36.656Z,13.98
2024-05-09T23:43:06.846Z,14.10
2024-05-09T23:45:33.755Z,14.10
2024-05-09T23:48:00.722Z,14.10
2024-05-09T23:50:34.293Z,14.02
2024-05-09T23:53:04.249Z,13.98
2024-05-09T23:55:31.625Z,14.00
2024-05-09T23:57:58.663Z,13.93
